sensor_id;sensor_type;location;lat;lon;timestamp;P1;durP1;ratioP1;P2;durP2;ratioP2
28862;SDS011;15994;51.796;13.006;2023-03-01T00:00:54;11.50;;;6.43;;
28862;SDS011;15994;51.796;13.006;2023-03-01T00:03:26;10.48;;;6.15;;
28862;SDS011;15994;51.796;13.006;2023-03-01T00:05:53;12.77;;;5.97;;
28862;SDS011;15994;51.796;13.006;2023-03-01T00:08:19;12.00;;;6.25;;
28862;SDS011;15994;51.796;13.006;2023-03-01T00:10:46;10.80;;;5.57;;
28862;SDS011;15994;51.796;13.006;2023-03-01T00:13:12;9.75;;;5.82;;
28862;SDS011;15994;51.796;13.006;2023-03-01T00:15:39;12.23;;;6.00;;
28862;SDS011;15994;51.796;13.006;2023-03-01T00:18:07;11.68;;;5.68;;
28862;SDS011;15994;51.796;13.006;2023-03-01T00:20:34;12.02;;;5.82;;
28862;SDS011;15994;51.796;13.006;2023-03-01T00:23:00;10.40;;;5.70;;
28862;SDS011;15994;51.796;13.006;2023-03-01T00:25:27;13.10;;;5.63;;
28862;SDS011;15994;51.796;13.006;2023-03-01T00:27:53;11.13;;;5.70;;
28862;SDS011;15994;51.796;13.006;2023-03-01T00:30:20;11.30;;;5.70;;
28862;SDS011;15994;51.796;13.006;2023-03-01T00:32:47;11.55;;;5.55;;
28862;SDS011;15994;51.796;13.006;2023-03-01T00:35:13;10.32;;;5.50;;
28862;SDS011;15994;51.796;13.006;2023-03-01T00:37:40;10.05;;;5.05;;
28862;SDS011;15994;51.796;13.006;2023-03-01T00:40:07;9.52;;;5.43;;
28862;SDS011;15994;51.796;13.006;2023-03-01T00:42:35;11.48;;;5.60;;
28862;SDS011;15994;51.796;13.006;2023-03-01T00:45:01;11.13;;;5.50;;
28862;SDS011;15994;51.796;13.006;2023-03-01T00:47:28;12.50;;;5.53;;
28862;SDS011;15994;51.796;13.006;2023-03-01T00:49:55;9.32;;;5.72;;
28862;SDS011;15994;51.796;13.006;2023-03-01T00:52:21;11.75;;;6.05;;
28862;SDS011;15994;51.796;13.006;2023-03-01T00:54:48;10.95;;;5.72;;
28862;SDS011;15994;51.796;13.006;2023-03-01T00:57:17;11.00;;;6.15;;
28862;SDS011;15994;51.796;13.006;2023-03-01T00:59:44;13.07;;;6.25;;
28862;SDS011;15994;51.796;13.006;2023-03-01T01:02:10;10.75;;;6.45;;
28862;SDS011;15994;51.796;13.006;2023-03-01T01:04:37;11.63;;;6.65;;
28862;SDS011;15994;51.796;13.006;2023-03-01T01:07:03;10.77;;;6.05;;
28862;SDS011;15994;51.796;13.006;2023-03-01T01:09:30;11.45;;;6.32;;
28862;SDS011;15994;51.796;13.006;2023-03-01T01:11:57;14.27;;;6.40;;
28862;SDS011;15994;51.796;13.006;2023-03-01T01:14:23;15.25;;;6.25;;
28862;SDS011;15994;51.796;13.006;2023-03-01T01:16:50;11.63;;;6.22;;
28862;SDS011;15994;51.796;13.006;2023-03-01T01:19:16;13.38;;;6.45;;
28862;SDS011;15994;51.796;13.006;2023-03-01T01:21:43;12.02;;;5.93;;
28862;SDS011;15994;51.796;13.006;2023-03-01T01:24:10;11.27;;;6.15;;
28862;SDS011;15994;51.796;13.006;2023-03-01T01:26:37;11.70;;;6.40;;
28862;SDS011;15994;51.796;13.006;2023-03-01T01:29:04;11.18;;;6.18;;
28862;SDS011;15994;51.796;13.006;2023-03-01T01:31:31;10.52;;;5.93;;
28862;SDS011;15994;51.796;13.006;2023-03-01T01:33:59;11.70;;;5.97;;
28862;SDS011;15994;51.796;13.006;2023-03-01T01:36:27;12.93;;;6.45;;
28862;SDS011;15994;51.796;13.006;2023-03-01T01:38:54;13.68;;;6.55;;
28862;SDS011;15994;51.796;13.006;2023-03-01T01:41:21;12.45;;;6.18;;
28862;SDS011;15994;51.796;13.006;2023-03-01T01:44:08;11.10;;;5.93;;
28862;SDS011;15994;51.796;13.006;2023-03-01T01:46:35;10.10;;;5.70;;
28862;SDS011;15994;51.796;13.006;2023-03-01T01:49:17;12.75;;;6.15;;
28862;SDS011;15994;51.796;13.006;2023-03-01T01:54:59;13.38;;;6.43;;
28862;SDS011;15994;51.796;13.006;2023-03-01T01:57:37;11.05;;;6.13;;
28862;SDS011;15994;51.796;13.006;2023-03-01T02:00:08;12.30;;;6.63;;
28862;SDS011;15994;51.796;13.006;2023-03-01T02:02:47;12.48;;;6.85;;
28862;SDS011;15994;51.796;13.006;2023-03-01T02:07:52;14.07;;;7.40;;
28862;SDS011;15994;51.796;13.006;2023-03-01T02:10:19;12.80;;;7.30;;
28862;SDS011;15994;51.796;13.006;2023-03-01T02:12:48;13.27;;;7.22;;
28862;SDS011;15994;51.796;13.006;2023-03-01T02:15:15;13.85;;;7.13;;
28862;SDS011;15994;51.796;13.006;2023-03-01T02:17:42;13.27;;;7.38;;
28862;SDS011;15994;51.796;13.006;2023-03-01T02:22:36;14.32;;;6.95;;
28862;SDS011;15994;51.796;13.006;2023-03-01T02:28:01;13.43;;;7.07;;
28862;SDS011;15994;51.796;13.006;2023-03-01T02:30:43;15.35;;;7.07;;
28862;SDS011;15994;51.796;13.006;2023-03-01T02:33:26;13.38;;;6.85;;
28862;SDS011;15994;51.796;13.006;2023-03-01T02:35:53;12.77;;;7.07;;
28862;SDS011;15994;51.796;13.006;2023-03-01T02:38:21;13.20;;;7.15;;
28862;SDS011;15994;51.796;13.006;2023-03-01T02:40:50;13.30;;;6.95;;
28862;SDS011;15994;51.796;13.006;2023-03-01T02:43:18;15.70;;;7.70;;
28862;SDS011;15994;51.796;13.006;2023-03-01T02:45:52;12.90;;;7.15;;
28862;SDS011;15994;51.796;13.006;2023-03-01T02:48:23;13.70;;;6.93;;
28862;SDS011;15994;51.796;13.006;2023-03-01T02:53:23;14.23;;;7.72;;
28862;SDS011;15994;51.796;13.006;2023-03-01T02:55:59;14.32;;;7.57;;
28862;SDS011;15994;51.796;13.006;2023-03-01T02:58:27;12.77;;;7.78;;
28862;SDS011;15994;51.796;13.006;2023-03-01T03:00:53;12.25;;;7.47;;
28862;SDS011;15994;51.796;13.006;2023-03-01T03:03:20;13.25;;;7.60;;
28862;SDS011;15994;51.796;13.006;2023-03-01T03:05:47;15.02;;;7.95;;
28862;SDS011;15994;51.796;13.006;2023-03-01T03:08:14;13.65;;;7.75;;
28862;SDS011;15994;51.796;13.006;2023-03-01T03:10:48;13.68;;;7.78;;
28862;SDS011;15994;51.796;13.006;2023-03-01T03:13:15;15.25;;;8.07;;
28862;SDS011;15994;51.796;13.006;2023-03-01T03:15:42;15.45;;;7.95;;
28862;SDS011;15994;51.796;13.006;2023-03-01T03:18:10;12.48;;;7.53;;
28862;SDS011;15994;51.796;13.006;2023-03-01T03:20:39;15.00;;;8.27;;
28862;SDS011;15994;51.796;13.006;2023-03-01T03:23:07;14.18;;;7.80;;
28862;SDS011;15994;51.796;13.006;2023-03-01T03:25:33;16.63;;;8.07;;
28862;SDS011;15994;51.796;13.006;2023-03-01T03:28:02;13.10;;;7.97;;
28862;SDS011;15994;51.796;13.006;2023-03-01T03:30:35;16.02;;;7.95;;
28862;SDS011;15994;51.796;13.006;2023-03-01T03:33:04;13.70;;;7.55;;
28862;SDS011;15994;51.796;13.006;2023-03-01T03:35:33;13.23;;;7.20;;
28862;SDS011;15994;51.796;13.006;2023-03-01T03:38:05;13.85;;;7.95;;
28862;SDS011;15994;51.796;13.006;2023-03-01T03:40:35;14.77;;;7.88;;
28862;SDS011;15994;51.796;13.006;2023-03-01T03:43:03;14.95;;;7.88;;
28862;SDS011;15994;51.796;13.006;2023-03-01T03:45:32;15.13;;;8.10;;
28862;SDS011;15994;51.796;13.006;2023-03-01T03:48:00;15.18;;;8.00;;
28862;SDS011;15994;51.796;13.006;2023-03-01T03:50:27;14.80;;;8.40;;
28862;SDS011;15994;51.796;13.006;2023-03-01T03:52:54;16.65;;;9.23;;
28862;SDS011;15994;51.796;13.006;2023-03-01T03:55:20;14.68;;;8.23;;
28862;SDS011;15994;51.796;13.006;2023-03-01T03:57:47;14.43;;;8.70;;
28862;SDS011;15994;51.796;13.006;2023-03-01T04:00:16;15.50;;;9.25;;
28862;SDS011;15994;51.796;13.006;2023-03-01T04:02:45;17.67;;;10.15;;
28862;SDS011;15994;51.796;13.006;2023-03-01T04:05:13;19.52;;;10.55;;
28862;SDS011;15994;51.796;13.006;2023-03-01T04:07:40;15.82;;;9.88;;
28862;SDS011;15994;51.796;13.006;2023-03-01T04:10:17;17.15;;;10.50;;
28862;SDS011;15994;51.796;13.006;2023-03-01T04:12:44;18.17;;;11.23;;
28862;SDS011;15994;51.796;13.006;2023-03-01T04:15:11;18.38;;;11.32;;
28862;SDS011;15994;51.796;13.006;2023-03-01T04:17:41;17.25;;;11.00;;
28862;SDS011;15994;51.796;13.006;2023-03-01T04:20:09;20.10;;;11.50;;
28862;SDS011;15994;51.796;13.006;2023-03-01T04:22:38;21.38;;;11.38;;
28862;SDS011;15994;51.796;13.006;2023-03-01T04:25:06;18.65;;;11.32;;
28862;SDS011;15994;51.796;13.006;2023-03-01T04:27:33;16.92;;;10.55;;
28862;SDS011;15994;51.796;13.006;2023-03-01T04:30:00;17.27;;;10.63;;
28862;SDS011;15994;51.796;13.006;2023-03-01T04:32:27;19.17;;;11.25;;
28862;SDS011;15994;51.796;13.006;2023-03-01T04:34:54;17.80;;;10.73;;
28862;SDS011;15994;51.796;13.006;2023-03-01T04:37:20;15.75;;;10.68;;
28862;SDS011;15994;51.796;13.006;2023-03-01T04:39:47;16.95;;;10.45;;
28862;SDS011;15994;51.796;13.006;2023-03-01T04:42:14;16.58;;;10.48;;
28862;SDS011;15994;51.796;13.006;2023-03-01T04:44:42;19.33;;;11.05;;
28862;SDS011;15994;51.796;13.006;2023-03-01T04:47:09;17.77;;;10.77;;
28862;SDS011;15994;51.796;13.006;2023-03-01T04:49:35;19.10;;;9.90;;
28862;SDS011;15994;51.796;13.006;2023-03-01T04:52:02;16.63;;;10.48;;
28862;SDS011;15994;51.796;13.006;2023-03-01T04:54:31;19.70;;;10.07;;
28862;SDS011;15994;51.796;13.006;2023-03-01T04:56:59;19.58;;;10.25;;
28862;SDS011;15994;51.796;13.006;2023-03-01T04:59:26;17.48;;;9.45;;
28862;SDS011;15994;51.796;13.006;2023-03-01T05:01:54;20.40;;;10.77;;
28862;SDS011;15994;51.796;13.006;2023-03-01T05:04:21;17.13;;;10.20;;
28862;SDS011;15994;51.796;13.006;2023-03-01T05:06:49;17.50;;;9.93;;
28862;SDS011;15994;51.796;13.006;2023-03-01T05:09:16;17.38;;;9.85;;
28862;SDS011;15994;51.796;13.006;2023-03-01T05:11:42;16.25;;;9.98;;
28862;SDS011;15994;51.796;13.006;2023-03-01T05:14:10;17.30;;;10.40;;
28862;SDS011;15994;51.796;13.006;2023-03-01T05:16:37;16.73;;;10.18;;
28862;SDS011;15994;51.796;13.006;2023-03-01T05:19:04;17.42;;;10.73;;
28862;SDS011;15994;51.796;13.006;2023-03-01T05:21:36;17.17;;;10.80;;
28862;SDS011;15994;51.796;13.006;2023-03-01T05:24:24;18.83;;;11.27;;
28862;SDS011;15994;51.796;13.006;2023-03-01T05:26:51;19.00;;;11.25;;
28862;SDS011;15994;51.796;13.006;2023-03-01T05:29:19;18.92;;;10.10;;
28862;SDS011;15994;51.796;13.006;2023-03-01T05:31:51;19.50;;;11.73;;
28862;SDS011;15994;51.796;13.006;2023-03-01T05:34:22;20.23;;;10.88;;
28862;SDS011;15994;51.796;13.006;2023-03-01T05:36:56;21.88;;;11.63;;
28862;SDS011;15994;51.796;13.006;2023-03-01T05:39:24;18.20;;;11.45;;
28862;SDS011;15994;51.796;13.006;2023-03-01T05:41:53;19.98;;;12.05;;
28862;SDS011;15994;51.796;13.006;2023-03-01T05:44:21;19.63;;;11.98;;
28862;SDS011;15994;51.796;13.006;2023-03-01T05:46:48;20.05;;;11.52;;
28862;SDS011;15994;51.796;13.006;2023-03-01T05:49:15;18.10;;;11.07;;
28862;SDS011;15994;51.796;13.006;2023-03-01T05:51:42;21.27;;;12.95;;
28862;SDS011;15994;51.796;13.006;2023-03-01T05:54:12;22.35;;;12.80;;
28862;SDS011;15994;51.796;13.006;2023-03-01T05:56:39;23.13;;;12.88;;
28862;SDS011;15994;51.796;13.006;2023-03-01T05:59:06;23.35;;;14.02;;
28862;SDS011;15994;51.796;13.006;2023-03-01T06:01:33;22.08;;;13.48;;
28862;SDS011;15994;51.796;13.006;2023-03-01T06:04:00;20.38;;;13.52;;
28862;SDS011;15994;51.796;13.006;2023-03-01T06:06:27;21.65;;;13.30;;
28862;SDS011;15994;51.796;13.006;2023-03-01T06:08:54;27.25;;;15.35;;
28862;SDS011;15994;51.796;13.006;2023-03-01T06:11:21;24.23;;;14.90;;
28862;SDS011;15994;51.796;13.006;2023-03-01T06:13:48;24.75;;;15.02;;
28862;SDS011;15994;51.796;13.006;2023-03-01T06:16:14;27.77;;;15.05;;
28862;SDS011;15994;51.796;13.006;2023-03-01T06:18:41;30.60;;;16.30;;
28862;SDS011;15994;51.796;13.006;2023-03-01T06:21:08;22.15;;;14.70;;
28862;SDS011;15994;51.796;13.006;2023-03-01T06:23:35;24.60;;;14.70;;
28862;SDS011;15994;51.796;13.006;2023-03-01T06:26:05;23.13;;;14.65;;
28862;SDS011;15994;51.796;13.006;2023-03-01T06:28:33;26.92;;;14.73;;
28862;SDS011;15994;51.796;13.006;2023-03-01T06:30:59;24.08;;;13.80;;
28862;SDS011;15994;51.796;13.006;2023-03-01T06:33:26;22.75;;;14.00;;
28862;SDS011;15994;51.796;13.006;2023-03-01T06:35:56;25.02;;;13.93;;
28862;SDS011;15994;51.796;13.006;2023-03-01T06:38:23;21.50;;;14.02;;
28862;SDS011;15994;51.796;13.006;2023-03-01T06:40:53;22.70;;;13.80;;
28862;SDS011;15994;51.796;13.006;2023-03-01T06:43:21;24.27;;;14.07;;
28862;SDS011;15994;51.796;13.006;2023-03-01T06:45:48;22.30;;;14.48;;
28862;SDS011;15994;51.796;13.006;2023-03-01T06:48:15;23.05;;;12.00;;
28862;SDS011;15994;51.796;13.006;2023-03-01T06:50:42;21.35;;;13.13;;
28862;SDS011;15994;51.796;13.006;2023-03-01T06:53:08;23.60;;;13.82;;
28862;SDS011;15994;51.796;13.006;2023-03-01T06:55:35;23.50;;;13.43;;
28862;SDS011;15994;51.796;13.006;2023-03-01T06:58:02;23.52;;;13.10;;
28862;SDS011;15994;51.796;13.006;2023-03-01T07:00:29;25.08;;;14.88;;
28862;SDS011;15994;51.796;13.006;2023-03-01T07:02:59;22.48;;;13.57;;
28862;SDS011;15994;51.796;13.006;2023-03-01T07:05:27;21.67;;;13.32;;
28862;SDS011;15994;51.796;13.006;2023-03-01T07:07:54;19.85;;;12.30;;
28862;SDS011;15994;51.796;13.006;2023-03-01T07:10:21;21.35;;;12.48;;
28862;SDS011;15994;51.796;13.006;2023-03-01T07:12:48;22.05;;;12.02;;
28862;SDS011;15994;51.796;13.006;2023-03-01T07:15:14;24.13;;;12.23;;
28862;SDS011;15994;51.796;13.006;2023-03-01T07:17:41;19.02;;;12.27;;
28862;SDS011;15994;51.796;13.006;2023-03-01T07:20:09;19.27;;;12.60;;
28862;SDS011;15994;51.796;13.006;2023-03-01T07:22:36;19.92;;;12.02;;
28862;SDS011;15994;51.796;13.006;2023-03-01T07:25:06;20.27;;;11.93;;
28862;SDS011;15994;51.796;13.006;2023-03-01T07:27:32;20.98;;;11.65;;
28862;SDS011;15994;51.796;13.006;2023-03-01T07:29:59;18.48;;;11.73;;
28862;SDS011;15994;51.796;13.006;2023-03-01T07:32:26;20.20;;;10.63;;
28862;SDS011;15994;51.796;13.006;2023-03-01T07:34:52;18.23;;;10.55;;
28862;SDS011;15994;51.796;13.006;2023-03-01T07:37:19;18.08;;;10.82;;
28862;SDS011;15994;51.796;13.006;2023-03-01T07:39:45;24.35;;;11.95;;
28862;SDS011;15994;51.796;13.006;2023-03-01T07:42:12;18.80;;;10.32;;
28862;SDS011;15994;51.796;13.006;2023-03-01T07:44:38;19.35;;;11.25;;
28862;SDS011;15994;51.796;13.006;2023-03-01T07:47:05;18.25;;;10.05;;
28862;SDS011;15994;51.796;13.006;2023-03-01T07:49:31;18.85;;;10.63;;
28862;SDS011;15994;51.796;13.006;2023-03-01T07:51:58;17.10;;;10.40;;
28862;SDS011;15994;51.796;13.006;2023-03-01T07:54:25;17.23;;;10.20;;
28862;SDS011;15994;51.796;13.006;2023-03-01T07:56:51;18.83;;;10.65;;
28862;SDS011;15994;51.796;13.006;2023-03-01T07:59:19;21.05;;;11.15;;
28862;SDS011;15994;51.796;13.006;2023-03-01T08:01:46;20.50;;;11.38;;
28862;SDS011;15994;51.796;13.006;2023-03-01T08:04:12;22.05;;;12.57;;
28862;SDS011;15994;51.796;13.006;2023-03-01T08:06:39;20.90;;;12.95;;
28862;SDS011;15994;51.796;13.006;2023-03-01T08:09:05;25.80;;;13.43;;
28862;SDS011;15994;51.796;13.006;2023-03-01T08:11:32;21.80;;;13.40;;
28862;SDS011;15994;51.796;13.006;2023-03-01T08:13:59;22.88;;;13.35;;
28862;SDS011;15994;51.796;13.006;2023-03-01T08:16:25;22.52;;;14.00;;
28862;SDS011;15994;51.796;13.006;2023-03-01T08:18:52;29.25;;;14.77;;
28862;SDS011;15994;51.796;13.006;2023-03-01T08:21:20;27.75;;;15.00;;
28862;SDS011;15994;51.796;13.006;2023-03-01T08:23:47;24.58;;;13.82;;
28862;SDS011;15994;51.796;13.006;2023-03-01T08:26:15;19.27;;;12.50;;
28862;SDS011;15994;51.796;13.006;2023-03-01T08:28:44;22.30;;;13.85;;
28862;SDS011;15994;51.796;13.006;2023-03-01T08:31:22;20.52;;;13.13;;
28862;SDS011;15994;51.796;13.006;2023-03-01T08:33:52;24.05;;;13.23;;
28862;SDS011;15994;51.796;13.006;2023-03-01T08:36:21;21.60;;;12.50;;
28862;SDS011;15994;51.796;13.006;2023-03-01T08:38:49;21.08;;;13.07;;
28862;SDS011;15994;51.796;13.006;2023-03-01T08:41:16;21.83;;;13.07;;
28862;SDS011;15994;51.796;13.006;2023-03-01T08:43:43;31.67;;;17.75;;
28862;SDS011;15994;51.796;13.006;2023-03-01T08:46:10;36.78;;;21.27;;
28862;SDS011;15994;51.796;13.006;2023-03-01T08:48:37;31.55;;;17.75;;
28862;SDS011;15994;51.796;13.006;2023-03-01T08:51:08;43.17;;;23.10;;
28862;SDS011;15994;51.796;13.006;2023-03-01T08:53:37;29.63;;;16.98;;
28862;SDS011;15994;51.796;13.006;2023-03-01T08:56:04;23.88;;;14.60;;
28862;SDS011;15994;51.796;13.006;2023-03-01T08:58:30;24.75;;;15.20;;
28862;SDS011;15994;51.796;13.006;2023-03-01T09:00:57;26.17;;;15.60;;
28862;SDS011;15994;51.796;13.006;2023-03-01T09:03:24;30.13;;;17.30;;
28862;SDS011;15994;51.796;13.006;2023-03-01T09:05:51;24.45;;;13.40;;
28862;SDS011;15994;51.796;13.006;2023-03-01T09:08:19;18.13;;;10.57;;
28862;SDS011;15994;51.796;13.006;2023-03-01T09:10:46;19.35;;;10.93;;
28862;SDS011;15994;51.796;13.006;2023-03-01T09:13:12;16.77;;;10.80;;
28862;SDS011;15994;51.796;13.006;2023-03-01T09:15:39;18.05;;;10.10;;
28862;SDS011;15994;51.796;13.006;2023-03-01T09:18:05;19.80;;;11.63;;
28862;SDS011;15994;51.796;13.006;2023-03-01T09:20:32;16.35;;;10.73;;
28862;SDS011;15994;51.796;13.006;2023-03-01T09:22:58;24.15;;;12.00;;
28862;SDS011;15994;51.796;13.006;2023-03-01T09:25:25;22.88;;;12.52;;
28862;SDS011;15994;51.796;13.006;2023-03-01T09:27:52;18.30;;;10.18;;
28862;SDS011;15994;51.796;13.006;2023-03-01T09:30:20;19.77;;;10.32;;
28862;SDS011;15994;51.796;13.006;2023-03-01T09:32:47;22.42;;;12.35;;
28862;SDS011;15994;51.796;13.006;2023-03-01T09:35:13;20.10;;;12.68;;
28862;SDS011;15994;51.796;13.006;2023-03-01T09:37:40;23.02;;;12.25;;
28862;SDS011;15994;51.796;13.006;2023-03-01T09:40:15;17.02;;;9.70;;
28862;SDS011;15994;51.796;13.006;2023-03-01T09:43:05;17.55;;;10.85;;
28862;SDS011;15994;51.796;13.006;2023-03-01T09:45:41;18.75;;;9.25;;
28862;SDS011;15994;51.796;13.006;2023-03-01T09:48:16;18.10;;;10.52;;
28862;SDS011;15994;51.796;13.006;2023-03-01T09:50:47;24.60;;;11.60;;
28862;SDS011;15994;51.796;13.006;2023-03-01T09:53:15;14.27;;;7.93;;
28862;SDS011;15994;51.796;13.006;2023-03-01T09:55:45;19.05;;;8.35;;
28862;SDS011;15994;51.796;13.006;2023-03-01T10:03:44;19.75;;;9.32;;
28862;SDS011;15994;51.796;13.006;2023-03-01T10:08:56;16.40;;;8.13;;
28862;SDS011;15994;51.796;13.006;2023-03-01T10:11:28;15.95;;;7.05;;
28862;SDS011;15994;51.796;13.006;2023-03-01T10:16:43;15.85;;;8.10;;
28862;SDS011;15994;51.796;13.006;2023-03-01T10:19:27;20.02;;;8.88;;
28862;SDS011;15994;51.796;13.006;2023-03-01T10:22:00;15.27;;;7.47;;
28862;SDS011;15994;51.796;13.006;2023-03-01T10:24:35;13.23;;;6.53;;
28862;SDS011;15994;51.796;13.006;2023-03-01T10:27:07;11.15;;;6.47;;
28862;SDS011;15994;51.796;13.006;2023-03-01T10:29:50;11.02;;;6.28;;
28862;SDS011;15994;51.796;13.006;2023-03-01T10:32:18;12.48;;;6.60;;
28862;SDS011;15994;51.796;13.006;2023-03-01T10:34:46;17.35;;;6.70;;
28862;SDS011;15994;51.796;13.006;2023-03-01T10:37:15;11.60;;;6.68;;
28862;SDS011;15994;51.796;13.006;2023-03-01T10:40:03;14.88;;;7.20;;
28862;SDS011;15994;51.796;13.006;2023-03-01T10:42:33;11.80;;;6.07;;
28862;SDS011;15994;51.796;13.006;2023-03-01T10:50:44;11.77;;;5.65;;
28862;SDS011;15994;51.796;13.006;2023-03-01T10:53:20;10.13;;;5.03;;
28862;SDS011;15994;51.796;13.006;2023-03-01T10:58:36;9.52;;;5.70;;
28862;SDS011;15994;51.796;13.006;2023-03-01T11:03:42;9.35;;;5.05;;
28862;SDS011;15994;51.796;13.006;2023-03-01T11:08:45;12.68;;;5.20;;
28862;SDS011;15994;51.796;13.006;2023-03-01T11:13:57;11.93;;;5.05;;
28862;SDS011;15994;51.796;13.006;2023-03-01T11:16:37;9.35;;;5.30;;
28862;SDS011;15994;51.796;13.006;2023-03-01T11:24:17;7.20;;;3.50;;
28862;SDS011;15994;51.796;13.006;2023-03-01T11:26:48;6.82;;;3.60;;
28862;SDS011;15994;51.796;13.006;2023-03-01T11:29:38;8.57;;;4.00;;
28862;SDS011;15994;51.796;13.006;2023-03-01T11:32:10;8.82;;;3.70;;
28862;SDS011;15994;51.796;13.006;2023-03-01T11:34:39;6.53;;;3.60;;
28862;SDS011;15994;51.796;13.006;2023-03-01T11:37:20;7.32;;;3.80;;
28862;SDS011;15994;51.796;13.006;2023-03-01T11:39:56;6.75;;;3.03;;
28862;SDS011;15994;51.796;13.006;2023-03-01T11:42:30;6.00;;;3.40;;
28862;SDS011;15994;51.796;13.006;2023-03-01T11:45:09;6.40;;;3.35;;
28862;SDS011;15994;51.796;13.006;2023-03-01T11:55:51;9.25;;;4.88;;
28862;SDS011;15994;51.796;13.006;2023-03-01T12:04:24;7.32;;;3.22;;
28862;SDS011;15994;51.796;13.006;2023-03-01T12:09:54;5.90;;;2.47;;
28862;SDS011;15994;51.796;13.006;2023-03-01T12:25:02;15.18;;;5.43;;
28862;SDS011;15994;51.796;13.006;2023-03-01T12:28:02;9.10;;;4.55;;
28862;SDS011;15994;51.796;13.006;2023-03-01T12:41:58;6.65;;;3.55;;
28862;SDS011;15994;51.796;13.006;2023-03-01T12:44:42;8.32;;;3.53;;
28862;SDS011;15994;51.796;13.006;2023-03-01T12:50:28;4.88;;;2.92;;
28862;SDS011;15994;51.796;13.006;2023-03-01T12:53:12;11.68;;;4.47;;
28862;SDS011;15994;51.796;13.006;2023-03-01T12:56:14;4.60;;;2.65;;
28862;SDS011;15994;51.796;13.006;2023-03-01T13:07:18;5.80;;;3.35;;
28862;SDS011;15994;51.796;13.006;2023-03-01T13:17:58;6.50;;;3.80;;
28862;SDS011;15994;51.796;13.006;2023-03-01T13:20:31;10.23;;;3.92;;
28862;SDS011;15994;51.796;13.006;2023-03-01T13:26:07;9.13;;;4.50;;
28862;SDS011;15994;51.796;13.006;2023-03-01T13:28:50;11.60;;;5.28;;
28862;SDS011;15994;51.796;13.006;2023-03-01T13:44:12;5.30;;;2.92;;
28862;SDS011;15994;51.796;13.006;2023-03-01T13:47:14;7.35;;;3.65;;
28862;SDS011;15994;51.796;13.006;2023-03-01T13:55:21;7.75;;;3.92;;
28862;SDS011;15994;51.796;13.006;2023-03-01T13:57:55;6.75;;;3.30;;
28862;SDS011;15994;51.796;13.006;2023-03-01T14:03:08;5.80;;;3.50;;
28862;SDS011;15994;51.796;13.006;2023-03-01T14:05:41;6.88;;;3.78;;
28862;SDS011;15994;51.796;13.006;2023-03-01T14:08:29;6.43;;;3.53;;
28862;SDS011;15994;51.796;13.006;2023-03-01T14:13:42;6.20;;;3.47;;
28862;SDS011;15994;51.796;13.006;2023-03-01T14:21:46;6.63;;;3.65;;
28862;SDS011;15994;51.796;13.006;2023-03-01T14:24:17;6.88;;;4.22;;
28862;SDS011;15994;51.796;13.006;2023-03-01T14:26:46;8.45;;;4.07;;
28862;SDS011;15994;51.796;13.006;2023-03-01T14:29:24;9.85;;;4.75;;
28862;SDS011;15994;51.796;13.006;2023-03-01T14:31:52;8.32;;;4.38;;
28862;SDS011;15994;51.796;13.006;2023-03-01T14:34:20;6.93;;;3.90;;
28862;SDS011;15994;51.796;13.006;2023-03-01T14:36:47;5.68;;;3.30;;
28862;SDS011;15994;51.796;13.006;2023-03-01T14:39:18;9.20;;;3.97;;
28862;SDS011;15994;51.796;13.006;2023-03-01T14:41:46;6.75;;;4.20;;
28862;SDS011;15994;51.796;13.006;2023-03-01T14:44:15;6.60;;;3.92;;
28862;SDS011;15994;51.796;13.006;2023-03-01T14:46:45;10.57;;;5.18;;
28862;SDS011;15994;51.796;13.006;2023-03-01T14:49:14;8.75;;;4.80;;
28862;SDS011;15994;51.796;13.006;2023-03-01T14:51:53;7.25;;;3.85;;
28862;SDS011;15994;51.796;13.006;2023-03-01T14:54:27;8.45;;;3.80;;
28862;SDS011;15994;51.796;13.006;2023-03-01T14:57:12;6.18;;;3.88;;
28862;SDS011;15994;51.796;13.006;2023-03-01T14:59:46;7.10;;;3.72;;
28862;SDS011;15994;51.796;13.006;2023-03-01T15:02:16;9.40;;;4.13;;
28862;SDS011;15994;51.796;13.006;2023-03-01T15:04:45;6.63;;;4.00;;
28862;SDS011;15994;51.796;13.006;2023-03-01T15:07:14;8.48;;;4.25;;
28862;SDS011;15994;51.796;13.006;2023-03-01T15:09:40;6.75;;;3.80;;
28862;SDS011;15994;51.796;13.006;2023-03-01T15:14:53;7.47;;;4.22;;
28862;SDS011;15994;51.796;13.006;2023-03-01T15:17:26;9.05;;;4.20;;
28862;SDS011;15994;51.796;13.006;2023-03-01T15:20:03;8.23;;;4.13;;
28862;SDS011;15994;51.796;13.006;2023-03-01T15:22:32;7.93;;;4.50;;
28862;SDS011;15994;51.796;13.006;2023-03-01T15:25:00;8.25;;;4.35;;
28862;SDS011;15994;51.796;13.006;2023-03-01T15:27:27;7.72;;;3.70;;
28862;SDS011;15994;51.796;13.006;2023-03-01T15:29:55;8.25;;;3.38;;
28862;SDS011;15994;51.796;13.006;2023-03-01T15:32:26;5.63;;;3.10;;
28862;SDS011;15994;51.796;13.006;2023-03-01T15:34:58;6.78;;;3.92;;
28862;SDS011;15994;51.796;13.006;2023-03-01T15:40:02;6.88;;;4.32;;
28862;SDS011;15994;51.796;13.006;2023-03-01T15:48:02;22.67;;;15.25;;
28862;SDS011;15994;51.796;13.006;2023-03-01T15:50:35;21.15;;;14.00;;
28862;SDS011;15994;51.796;13.006;2023-03-01T15:53:05;9.50;;;5.30;;
28862;SDS011;15994;51.796;13.006;2023-03-01T15:55:36;26.55;;;16.52;;
28862;SDS011;15994;51.796;13.006;2023-03-01T15:58:04;11.35;;;5.47;;
28862;SDS011;15994;51.796;13.006;2023-03-01T16:00:35;10.00;;;5.63;;
28862;SDS011;15994;51.796;13.006;2023-03-01T16:03:02;12.93;;;6.22;;
28862;SDS011;15994;51.796;13.006;2023-03-01T16:05:30;24.90;;;14.88;;
28862;SDS011;15994;51.796;13.006;2023-03-01T16:07:58;19.23;;;9.85;;
28862;SDS011;15994;51.796;13.006;2023-03-01T16:10:25;18.88;;;8.82;;
28862;SDS011;15994;51.796;13.006;2023-03-01T16:12:52;17.83;;;7.53;;
28862;SDS011;15994;51.796;13.006;2023-03-01T16:15:20;18.98;;;5.78;;
28862;SDS011;15994;51.796;13.006;2023-03-01T16:17:48;13.07;;;5.47;;
28862;SDS011;15994;51.796;13.006;2023-03-01T16:20:16;10.38;;;4.65;;
28862;SDS011;15994;51.796;13.006;2023-03-01T16:22:43;11.35;;;6.45;;
28862;SDS011;15994;51.796;13.006;2023-03-01T16:25:10;18.83;;;10.13;;
28862;SDS011;15994;51.796;13.006;2023-03-01T16:27:38;16.83;;;9.48;;
28862;SDS011;15994;51.796;13.006;2023-03-01T16:30:07;14.20;;;8.00;;
28862;SDS011;15994;51.796;13.006;2023-03-01T16:32:42;14.20;;;8.77;;
28862;SDS011;15994;51.796;13.006;2023-03-01T16:35:11;13.02;;;6.70;;
28862;SDS011;15994;51.796;13.006;2023-03-01T16:37:39;13.18;;;7.28;;
28862;SDS011;15994;51.796;13.006;2023-03-01T16:40:06;10.57;;;5.55;;
28862;SDS011;15994;51.796;13.006;2023-03-01T16:42:52;12.57;;;5.65;;
28862;SDS011;15994;51.796;13.006;2023-03-01T16:45:20;8.48;;;3.95;;
28862;SDS011;15994;51.796;13.006;2023-03-01T16:47:46;8.88;;;3.85;;
28862;SDS011;15994;51.796;13.006;2023-03-01T16:50:13;5.78;;;3.33;;
28862;SDS011;15994;51.796;13.006;2023-03-01T16:52:39;6.28;;;3.60;;
28862;SDS011;15994;51.796;13.006;2023-03-01T16:55:06;11.45;;;4.25;;
28862;SDS011;15994;51.796;13.006;2023-03-01T16:57:34;7.50;;;3.85;;
28862;SDS011;15994;51.796;13.006;2023-03-01T17:00:02;7.03;;;3.95;;
28862;SDS011;15994;51.796;13.006;2023-03-01T17:02:34;7.28;;;3.72;;